Time,TemperatureF,DewpointF,PressureIn,WindDirection,WindDirectionDegrees,WindSpeedMPH,WindSpeedGustMPH,Humidity,HourlyPrecipIn,Conditions,Clouds,dailyrainin,SoftwareType,DateUTC
2013-05-27 01:00:00,58.1,45.2,30.04,SE,135,5.4,5.4,62,0.00,,,0.00,WUHU216HW,2013-05-27 06:00:00,
2013-05-27 01:05:00,58.1,45.2,30.04,SE,135,5.4,5.4,62,0.00,,,0.00,WUHU216HW,2013-05-27 06:05:00,
2013-05-27 01:30:00,58.1,45.6,30.02,East,90,3.6,3.6,63,0.00,,,0.00,WUHU216HW,2013-05-27 06:30:00,
2013-05-27 01:35:00,58.1,45.6,30.02,East,90,3.6,3.6,63,0.00,,,0.00,WUHU216HW,2013-05-27 06:35:00,
2013-05-27 01:36:00,58.1,45.6,30.02,East,90,3.6,3.6,63,0.00,,,0.00,WUHU216HW,2013-05-27 06:36:00,
2013-05-27 03:00:00,58.3,45.7,30.01,SE,135,6.7,6.7,63,0.00,,,0.00,WUHU216HW,2013-05-27 08:00:00,
2013-05-27 03:05:00,58.3,45.7,30.00,ESE,113,9.4,9.4,63,0.00,,,0.00,WUHU216HW,2013-05-27 08:05:00,
2013-05-27 03:06:00,58.3,45.7,30.00,ESE,113,9.4,9.4,63,0.00,,,0.00,WUHU216HW,2013-05-27 08:06:00,
2013-05-27 03:10:00,58.3,45.7,30.00,ESE,113,9.4,9.4,63,0.00,,,0.00,WUHU216HW,2013-05-27 08:10:00,
2013-05-27 03:11:00,58.3,45.7,30.00,ESE,113,9.4,9.4,63,0.00,,,0.00,WUHU216HW,2013-05-27 08:11:00,
2013-05-27 03:12:00,58.3,45.7,30.00,ESE,113,9.4,9.4,63,0.00,,,0.00,WUHU216HW,2013-05-27 08:12:00,
2013-05-27 05:00:00,57.2,47.5,29.99,SE,135,6.3,6.3,70,0.00,,,0.00,WUHU216HW,2013-05-27 10:00:00,
2013-05-27 05:05:00,57.2,47.5,29.99,SE,135,6.3,6.3,70,0.00,,,0.00,WUHU216HW,2013-05-27 10:05:00,
2013-05-27 06:00:00,57.1,47.7,29.99,SE,135,4.5,4.5,71,0.00,,,0.00,WUHU216HW,2013-05-27 11:00:00,
2013-05-27 06:05:00,57.1,47.7,29.99,SE,135,4.5,4.5,71,0.00,,,0.00,WUHU216HW,2013-05-27 11:05:00,
2013-05-27 08:00:00,57.1,47.3,29.96,ESE,113,11.4,11.4,70,0.00,,,0.00,WUHU216HW,2013-05-27 13:00:00,
2013-05-27 08:05:00,57.1,47.3,29.96,East,100,5.7,12.1,70,0.00,,,0.00,WUHU216HW,2013-05-27 13:05:00,
2013-05-27 08:10:00,57.1,47.3,29.96,SE,135,5.4,12.1,70,0.00,,,0.00,WUHU216HW,2013-05-27 13:10:00,
2013-05-27 08:33:00,57.4,47.4,29.96,SSE,158,4.9,4.9,69,0.00,,,0.00,WUHU216HW,2013-05-27 13:33:00,
2013-05-27 08:34:00,57.4,47.4,29.96,SE,129,4.3,4.9,69,0.00,,,0.00,WUHU216HW,2013-05-27 13:34:00,
2013-05-27 08:38:00,57.4,47.4,29.96,ESE,113,4.5,6.3,69,0.00,,,0.00,WUHU216HW,2013-05-27 13:38:00,
2013-05-27 08:39:00,57.4,47.4,29.96,ESE,111,4.3,6.3,69,0.00,,,0.00,WUHU216HW,2013-05-27 13:39:00,
2013-05-27 08:43:00,57.4,47.4,29.97,ESE,113,4.5,6.3,69,0.00,,,0.00,WUHU216HW,2013-05-27 13:43:00,
2013-05-27 08:44:00,57.4,47.4,29.97,ESE,113,4.5,6.3,69,0.00,,,0.00,WUHU216HW,2013-05-27 13:44:00,
2013-05-27 08:49:00,57.4,47.4,29.97,ESE,113,4.5,4.5,69,0.00,,,0.00,WUHU216HW,2013-05-27 13:49:00,
2013-05-27 09:00:00,57.4,46.9,29.96,East,90,5.1,5.1,68,0.00,,,0.00,WUHU216HW,2013-05-27 14:00:00,
2013-05-27 09:05:00,57.4,46.9,29.96,East,90,5.1,5.1,68,0.00,,,0.00,WUHU216HW,2013-05-27 14:05:00,
2013-05-27 09:06:00,57.4,46.9,29.96,East,90,5.1,5.1,68,0.00,,,0.00,WUHU216HW,2013-05-27 14:06:00,
2013-05-27 09:30:00,57.6,45.9,29.96,SE,135,4.7,4.7,65,0.00,,,0.00,WUHU216HW,2013-05-27 14:30:00,
2013-05-27 09:35:00,57.6,45.9,29.96,WSW,248,2.5,4.7,65,0.00,,,0.00,WUHU216HW,2013-05-27 14:35:00,
2013-05-27 10:00:00,57.4,46.9,29.96,SSE,158,4.5,4.5,68,0.00,,,0.00,WUHU216HW,2013-05-27 15:00:00,
2013-05-27 10:01:00,57.4,46.9,29.96,ESE,113,5.4,5.4,68,0.00,,,0.00,WUHU216HW,2013-05-27 15:01:00,
2013-05-27 10:05:00,57.4,46.9,29.96,ESE,113,5.4,5.4,68,0.00,,,0.00,WUHU216HW,2013-05-27 15:05:00,
2013-05-27 10:06:00,57.4,46.9,29.96,ESE,113,5.4,5.4,68,0.00,,,0.00,WUHU216HW,2013-05-27 15:06:00,
2013-05-27 10:10:00,57.4,46.9,29.96,ESE,113,5.4,5.4,68,0.00,,,0.00,WUHU216HW,2013-05-27 15:10:00,
2013-05-27 10:30:00,58.3,47.0,29.94,SSE,158,2.0,2.0,66,0.00,,,0.00,WUHU216HW,2013-05-27 15:30:00,
2013-05-27 10:31:00,58.3,47.0,29.94,East,90,4.5,4.5,66,0.00,,,0.00,WUHU216HW,2013-05-27 15:31:00,
2013-05-27 10:35:00,58.3,47.0,29.94,East,90,4.5,4.5,66,0.00,,,0.00,WUHU216HW,2013-05-27 15:35:00,
2013-05-27 10:36:00,58.3,47.0,29.94,East,90,4.5,4.5,66,0.00,,,0.00,WUHU216HW,2013-05-27 15:36:00,
2013-05-27 11:00:00,58.7,46.5,29.94,East,90,6.3,6.3,64,0.00,,,0.00,WUHU216HW,2013-05-27 16:00:00,
2013-05-27 11:05:00,58.7,46.5,29.94,North,0,11.9,11.9,64,0.00,,,0.00,WUHU216HW,2013-05-27 16:05:00,
2013-05-27 11:10:00,58.7,46.5,29.94,North,0,11.9,11.9,64,0.00,,,0.00,WUHU216HW,2013-05-27 16:10:00,
2013-05-27 11:30:00,59.0,46.8,29.92,East,90,8.9,8.9,64,0.00,,,0.00,WUHU216HW,2013-05-27 16:30:00,
2013-05-27 11:31:00,59.0,46.8,29.92,East,90,8.9,8.9,64,0.00,,,0.00,WUHU216HW,2013-05-27 16:31:00,
2013-05-27 11:35:00,59.0,46.8,29.92,East,90,8.9,8.9,64,0.00,,,0.00,WUHU216HW,2013-05-27 16:35:00,
2013-05-27 11:36:00,59.0,46.8,29.92,East,90,8.9,8.9,64,0.00,,,0.00,WUHU216HW,2013-05-27 16:36:00,
2013-05-27 11:40:00,59.0,46.8,29.92,East,90,8.9,8.9,64,0.00,,,0.00,WUHU216HW,2013-05-27 16:40:00,
2013-05-27 12:00:00,60.5,48.2,29.91,SSE,158,10.5,10.5,64,0.00,,,0.00,WUHU216HW,2013-05-27 17:00:00,
2013-05-27 12:05:00,60.3,48.1,29.91,ESE,113,9.4,10.5,64,0.00,,,0.00,WUHU216HW,2013-05-27 17:05:00,
2013-05-27 12:10:00,60.3,48.1,29.91,ESE,113,9.4,9.4,64,0.00,,,0.00,WUHU216HW,2013-05-27 17:10:00,
2013-05-27 12:30:00,58.7,47.4,29.91,ENE,68,3.6,3.6,66,0.00,,,0.00,WUHU216HW,2013-05-27 17:30:00,
2013-05-27 12:35:00,58.7,47.4,29.91,SE,135,2.9,3.6,66,0.00,,,0.00,WUHU216HW,2013-05-27 17:35:00,
2013-05-27 12:36:00,58.7,47.4,29.91,SE,135,2.9,3.6,66,0.00,,,0.00,WUHU216HW,2013-05-27 17:36:00,
2013-05-27 13:00:00,60.7,49.3,29.89,ESE,113,4.9,4.9,66,0.00,,,0.00,WUHU216HW,2013-05-27 18:00:00,
2013-05-27 13:05:00,60.7,49.3,29.89,ESE,113,6.3,6.3,66,0.00,,,0.00,WUHU216HW,2013-05-27 18:05:00,
2013-05-27 13:10:00,60.7,49.3,29.89,ESE,113,6.3,6.3,66,0.00,,,0.00,WUHU216HW,2013-05-27 18:10:00,
2013-05-27 13:30:00,59.9,49.8,29.89,NE,45,2.7,2.7,69,0.00,,,0.00,WUHU216HW,2013-05-27 18:30:00,
2013-05-27 13:31:00,59.9,49.8,29.89,NE,45,2.7,2.7,69,0.00,,,0.00,WUHU216HW,2013-05-27 18:31:00,
2013-05-27 13:35:00,59.9,49.8,29.89,NE,45,2.7,2.7,69,0.00,,,0.00,WUHU216HW,2013-05-27 18:35:00,
2013-05-27 13:36:00,59.9,49.8,29.89,NE,45,2.7,2.7,69,0.00,,,0.00,WUHU216HW,2013-05-27 18:36:00,
2013-05-27 14:00:00,60.5,50.8,29.90,ESE,113,1.1,1.1,70,0.00,,,0.00,WUHU216HW,2013-05-27 19:00:00,
2013-05-27 14:05:00,60.3,50.6,29.90,ESE,113,3.6,3.8,70,0.00,,,0.00,WUHU216HW,2013-05-27 19:05:00,
2013-05-27 14:10:00,60.3,50.6,29.90,ESE,113,3.6,3.8,70,0.00,,,0.00,WUHU216HW,2013-05-27 19:10:00,
2013-05-27 14:30:00,60.5,51.1,29.90,SE,135,3.4,3.4,71,0.00,,,0.00,WUHU216HW,2013-05-27 19:30:00,
2013-05-27 14:31:00,60.5,51.1,29.90,WSW,248,3.8,3.8,71,0.00,,,0.00,WUHU216HW,2013-05-27 19:31:00,
2013-05-27 14:35:00,60.5,51.1,29.90,WSW,248,3.8,3.8,71,0.00,,,0.00,WUHU216HW,2013-05-27 19:35:00,
2013-05-27 14:36:00,60.5,51.1,29.90,WSW,248,3.8,3.8,71,0.00,,,0.00,WUHU216HW,2013-05-27 19:36:00,
2013-05-27 14:41:00,60.5,51.1,29.90,WSW,248,3.8,3.8,71,0.00,,,0.00,WUHU216HW,2013-05-27 19:41:00,
2013-05-27 15:00:00,60.7,51.7,29.90,ENE,68,4.3,4.3,72,0.00,,,0.00,WUHU216HW,2013-05-27 20:00:00,
2013-05-27 15:05:00,60.7,51.7,29.90,ESE,113,3.4,4.3,72,0.00,,,0.00,WUHU216HW,2013-05-27 20:05:00,
2013-05-27 15:06:00,60.7,51.7,29.90,ESE,113,3.4,4.3,72,0.00,,,0.00,WUHU216HW,2013-05-27 20:06:00,
2013-05-27 15:10:00,60.7,51.7,29.90,ESE,113,3.4,3.4,72,0.00,,,0.00,WUHU216HW,2013-05-27 20:10:00,
2013-05-27 15:30:00,60.7,51.7,29.89,ESE,113,3.8,3.8,72,0.00,,,0.00,WUHU216HW,2013-05-27 20:30:00,
2013-05-27 15:35:00,60.7,51.7,29.89,East,90,3.8,3.8,72,0.00,,,0.00,WUHU216HW,2013-05-27 20:35:00,
2013-05-27 15:36:00,60.7,51.7,29.89,East,90,3.8,3.8,72,0.00,,,0.00,WUHU216HW,2013-05-27 20:36:00,
2013-05-27 15:40:00,60.7,51.7,29.89,East,90,3.8,3.8,72,0.00,,,0.00,WUHU216HW,2013-05-27 20:40:00,
2013-05-27 16:00:00,61.2,52.2,29.89,SE,135,3.4,3.4,72,0.00,,,0.00,WUHU216HW,2013-05-27 21:00:00,
2013-05-27 16:05:00,61.2,52.2,29.89,ESE,113,4.0,4.0,72,0.00,,,0.00,WUHU216HW,2013-05-27 21:05:00,
2013-05-27 16:10:00,61.2,52.2,29.89,ESE,113,4.0,4.0,72,0.00,,,0.00,WUHU216HW,2013-05-27 21:10:00,
2013-05-27 16:30:00,62.3,52.7,29.87,SE,135,3.4,3.4,71,0.00,,,0.00,WUHU216HW,2013-05-27 21:30:00,